USTRANSCOM 7628


PHNL
Daniel K Inouye International Airport
Honolulu, Hawaii, US
PWAK
Wake Island Airfield
Wake Island, , UM

Activity Log

Date Flight Route Aircraft Duration
08/18/2019 CMB828 KEOLA2 PUPPI 2200N/17000W 2200N/18000E 2100N/17000E AWK B752 5h 03m
03/14/2019 CMB828 KEOLA2 PUPPI V16 SYVAD 22N70 22E80 20E70 AWK B752 4h 54m

Route Details

Aircraft Information
Primary: Boeing 757-200SF
Backup: Not Available
Route Data
Distance: 1998nm
Sched. Duration: 4h 53m
Avg. Duration: 4h 78m (+26m)
Times Flown: 2
Recm'd Route: KEOLA2 PUPPI 2200N/17000W 2200N/18000E 2100N/17000E AWK
Planned Altitude: 34,000ft
Origin Wx: PHNL 290953Z 06007KT 10SM FEW025 BKN045 BKN250 25/18 A3014 RMK AO2 SLP207 T02500183 403000228
Dest. Wx: PWAK 290958Z AUTO 08013KT 9999 SCT021 SCT031 28/23 A3007 RMK AO2 SLPNO T02750231 $
Notes: USTRANSCOM CONTRACT FLIGHT | LIMITED FUEL AVBL TO NON-DOD ACFT

Financial History
Total Freight: 100,714lbs
Average Load: 50,357lbs/flt
Fuel Used: 81,313lbs
Avg. Fuel Used: 40,657lbs/flt
Fuel Expense: $56,106
Avg. Fuel Expense: $28,053
Avg. Fuel Cost: $0.69/lbs
Total Gross Income: $1,113,897
Pilot Pay: $378
Total Expenses: $120,405
Total Revenue: $935,059
Average Revenue: $556,948.44